createdAt,value
2022-08-16T00:00:14.053Z,0
2022-08-16T00:01:29.322Z,0
2022-08-16T00:02:45.518Z,0
2022-08-16T00:04:01.707Z,0
2022-08-16T00:05:17.893Z,0
2022-08-16T00:06:34.082Z,0
2022-08-16T00:07:51.202Z,0
2022-08-16T00:09:06.444Z,0
2022-08-16T00:10:23.566Z,0
2022-08-16T00:11:38.838Z,0
2022-08-16T00:12:54.975Z,0
2022-08-16T00:14:11.160Z,0
2022-08-16T00:15:26.415Z,0
2022-08-16T00:16:43.529Z,0
2022-08-16T00:17:59.729Z,0
2022-08-16T00:19:14.980Z,0
2022-08-16T00:20:32.094Z,0
2022-08-16T00:21:48.300Z,0
2022-08-16T00:23:04.472Z,0
2022-08-16T00:24:19.733Z,0
2022-08-16T00:25:36.855Z,0
2022-08-16T00:26:52.123Z,0
2022-08-16T00:28:08.296Z,0
2022-08-16T00:29:23.507Z,0
2022-08-16T00:30:40.626Z,0
2022-08-16T00:31:55.879Z,0
2022-08-16T00:33:13.016Z,0
2022-08-16T00:34:28.271Z,0
2022-08-16T00:35:45.382Z,0
2022-08-16T00:37:01.574Z,0
2022-08-16T00:38:17.757Z,0
2022-08-16T00:39:33.025Z,0
2022-08-16T00:40:50.133Z,0
2022-08-16T00:42:05.390Z,0
2022-08-16T00:43:22.513Z,0
2022-08-16T00:44:38.709Z,0
2022-08-16T00:45:53.922Z,0
2022-08-16T00:47:09.175Z,0
2022-08-16T00:48:26.296Z,0
2022-08-16T00:49:41.536Z,0
2022-08-16T00:50:58.675Z,0
2022-08-16T00:52:13.912Z,0
2022-08-16T00:53:30.105Z,0
2022-08-16T00:54:47.244Z,0
2022-08-16T00:56:03.419Z,0
2022-08-16T00:57:18.671Z,0
2022-08-16T00:58:35.795Z,0
2022-08-16T00:59:51.995Z,0
2022-08-16T01:01:08.182Z,0
2022-08-16T01:02:22.449Z,0
2022-08-16T01:03:39.587Z,0
2022-08-16T01:04:54.826Z,0
2022-08-16T01:06:11.952Z,0
2022-08-16T01:07:28.155Z,0
2022-08-16T01:08:43.391Z,0
2022-08-16T01:09:59.584Z,0
2022-08-16T01:11:16.704Z,0
2022-08-16T01:12:31.950Z,0
2022-08-16T01:13:49.095Z,0
2022-08-16T01:15:05.280Z,0
2022-08-16T01:16:21.476Z,0
2022-08-16T01:17:36.711Z,0
2022-08-16T01:18:52.872Z,0
2022-08-16T01:20:08.100Z,0
2022-08-16T01:21:25.246Z,0
2022-08-16T01:22:40.478Z,0
2022-08-16T01:23:57.617Z,0
2022-08-16T01:25:12.868Z,0
2022-08-16T01:26:30.003Z,0
2022-08-16T01:27:45.236Z,0
2022-08-16T01:29:02.373Z,0
2022-08-16T01:30:18.574Z,0
2022-08-16T01:31:33.805Z,0
2022-08-16T01:32:50.005Z,0
2022-08-16T01:34:07.144Z,0
2022-08-16T01:35:21.386Z,0
2022-08-16T01:36:38.529Z,0
2022-08-16T01:37:53.762Z,0
2022-08-16T01:39:10.914Z,0
2022-08-16T01:40:26.155Z,0
2022-08-16T01:41:43.290Z,0
2022-08-16T01:42:58.520Z,0
2022-08-16T01:44:14.723Z,0
2022-08-16T01:45:31.853Z,0
2022-08-16T01:46:48.037Z,0
2022-08-16T01:48:03.291Z,0
2022-08-16T01:49:20.421Z,0
2022-08-16T01:50:35.661Z,0
2022-08-16T01:51:51.811Z,0
2022-08-16T01:53:07.059Z,0
2022-08-16T01:54:24.206Z,0
2022-08-16T01:55:39.429Z,0
2022-08-16T01:56:55.612Z,0
2022-08-16T01:58:11.805Z,0
2022-08-16T01:59:27.991Z,0
2022-08-16T02:00:45.153Z,0
2022-08-16T02:02:01.333Z,0
2022-08-16T02:03:16.557Z,0
2022-08-16T02:04:33.715Z,0
2022-08-16T02:05:48.948Z,0
2022-08-16T02:07:06.099Z,0
2022-08-16T02:08:20.340Z,0
2022-08-16T02:09:36.520Z,0
2022-08-16T02:10:52.712Z,0
2022-08-16T02:12:08.914Z,0
2022-08-16T02:13:25.106Z,0
2022-08-16T02:14:42.234Z,0
2022-08-16T02:15:58.422Z,0
2022-08-16T02:17:14.627Z,0
2022-08-16T02:18:29.851Z,0
2022-08-16T02:19:46.046Z,0
2022-08-16T02:21:02.238Z,0
2022-08-16T02:22:19.373Z,0
2022-08-16T02:23:35.566Z,0
2022-08-16T02:24:50.781Z,0
2022-08-16T02:26:05.994Z,0
2022-08-16T02:27:23.142Z,0
2022-08-16T02:28:38.379Z,0
2022-08-16T02:29:55.535Z,0
2022-08-16T02:31:11.715Z,0
2022-08-16T02:32:26.947Z,0
2022-08-16T02:33:43.146Z,0
2022-08-16T02:34:59.320Z,0
2022-08-16T02:36:15.506Z,0
2022-08-16T02:37:32.659Z,0
2022-08-16T02:38:47.884Z,0
2022-08-16T02:40:05.039Z,0
2022-08-16T02:41:19.286Z,0
2022-08-16T02:42:36.443Z,0
2022-08-16T02:43:51.675Z,0
2022-08-16T02:45:08.821Z,0
2022-08-16T02:46:24.998Z,0
2022-08-16T02:47:40.229Z,0
2022-08-16T02:48:56.413Z,0
2022-08-16T02:50:13.574Z,0
2022-08-16T02:51:28.803Z,0
2022-08-16T02:52:45.956Z,0
2022-08-16T02:54:01.185Z,0
2022-08-16T02:55:18.330Z,0
2022-08-16T02:56:33.555Z,0
2022-08-16T02:57:49.734Z,0
2022-08-16T02:59:04.946Z,0
2022-08-16T03:00:21.135Z,0
2022-08-16T03:01:38.291Z,0
2022-08-16T03:02:54.482Z,0
2022-08-16T03:04:10.681Z,0
2022-08-16T03:05:25.892Z,0
2022-08-16T03:06:41.109Z,0
2022-08-16T03:07:58.265Z,0
2022-08-16T03:09:13.476Z,0
2022-08-16T03:10:30.640Z,0
2022-08-16T03:11:45.871Z,0
2022-08-16T03:13:02.043Z,0
2022-08-16T03:14:18.251Z,0
2022-08-16T03:15:35.394Z,0
2022-08-16T03:16:50.621Z,0
2022-08-16T03:18:07.771Z,0
2022-08-16T03:19:22.998Z,0
2022-08-16T03:20:40.160Z,0
2022-08-16T03:21:54.387Z,0
2022-08-16T03:23:11.558Z,0
2022-08-16T03:24:27.741Z,0
2022-08-16T03:25:43.934Z,0
2022-08-16T03:26:59.137Z,0
2022-08-16T03:28:16.315Z,0
2022-08-16T03:29:31.522Z,0
2022-08-16T03:30:48.674Z,0
2022-08-16T03:32:04.866Z,0
2022-08-16T03:33:21.071Z,0
2022-08-16T03:34:36.274Z,0
2022-08-16T03:35:53.444Z,0
2022-08-16T03:37:08.659Z,0
2022-08-16T03:38:24.834Z,0
2022-08-16T03:39:41.017Z,0
2022-08-16T03:40:56.229Z,0
2022-08-16T03:42:12.434Z,0
2022-08-16T03:43:29.597Z,0
2022-08-16T03:44:44.805Z,0
2022-08-16T03:46:01.970Z,0
2022-08-16T03:47:17.180Z,0
2022-08-16T03:48:34.344Z,0
2022-08-16T03:49:49.558Z,0
2022-08-16T03:51:06.726Z,0
2022-08-16T03:52:21.938Z,0
2022-08-16T03:53:39.114Z,0
2022-08-16T03:54:54.309Z,0
2022-08-16T03:56:10.500Z,0
2022-08-16T03:57:25.710Z,0
2022-08-16T03:58:42.879Z,0
2022-08-16T03:59:58.098Z,0
2022-08-16T04:01:15.269Z,0
2022-08-16T04:02:30.467Z,5
2022-08-16T04:03:46.657Z,5
2022-08-16T04:05:02.844Z,5
2022-08-16T04:06:20.018Z,5
2022-08-16T04:07:35.230Z,5
2022-08-16T04:08:52.383Z,5
2022-08-16T04:10:08.580Z,5
2022-08-16T04:11:23.782Z,5
2022-08-16T04:12:38.987Z,5
2022-08-16T04:13:56.167Z,5
2022-08-16T04:15:11.383Z,5
2022-08-16T04:16:27.554Z,5
2022-08-16T04:17:44.742Z,5
2022-08-16T04:19:00.923Z,11
2022-08-16T04:20:16.131Z,11
2022-08-16T04:21:33.309Z,11
2022-08-16T04:22:48.499Z,11
2022-08-16T04:24:05.671Z,11
2022-08-16T04:25:20.874Z,11
2022-08-16T04:26:38.053Z,11
2022-08-16T04:27:52.272Z,11
2022-08-16T04:29:08.469Z,11
2022-08-16T04:30:24.662Z,11
2022-08-16T04:31:41.832Z,11
2022-08-16T04:32:57.034Z,16
2022-08-16T04:34:14.209Z,16
2022-08-16T04:35:30.406Z,16
2022-08-16T04:36:46.589Z,16
2022-08-16T04:38:01.785Z,16
2022-08-16T04:39:18.963Z,16
2022-08-16T04:40:34.169Z,16
2022-08-16T04:41:50.365Z,16
2022-08-16T04:43:07.536Z,16
2022-08-16T04:44:22.735Z,16
2022-08-16T04:45:37.934Z,16
2022-08-16T04:46:55.125Z,22
2022-08-16T04:48:11.316Z,22
2022-08-16T04:49:27.488Z,22
2022-08-16T04:50:42.702Z,22
2022-08-16T04:51:59.881Z,22
2022-08-16T04:53:15.083Z,22
2022-08-16T04:54:31.257Z,22
2022-08-16T04:55:48.446Z,22
2022-08-16T04:57:04.634Z,22
2022-08-16T04:58:20.820Z,22
2022-08-16T04:59:37.009Z,28
2022-08-16T05:00:51.222Z,28
2022-08-16T05:02:08.393Z,28
2022-08-16T05:03:24.593Z,28
2022-08-16T05:04:39.793Z,28
2022-08-16T05:05:55.985Z,28
2022-08-16T05:07:12.175Z,28
2022-08-16T05:08:28.356Z,28
2022-08-16T05:09:45.540Z,28
2022-08-16T05:11:01.725Z,33
2022-08-16T05:12:17.910Z,33
2022-08-16T05:13:33.112Z,33
2022-08-16T05:14:50.295Z,33
2022-08-16T05:16:05.493Z,33
2022-08-16T05:17:20.683Z,33
2022-08-16T05:18:37.885Z,33
2022-08-16T05:19:54.076Z,33
2022-08-16T05:21:09.270Z,33
2022-08-16T05:22:25.439Z,33
2022-08-16T05:23:41.645Z,39
2022-08-16T05:24:58.823Z,39
2022-08-16T05:26:15.023Z,39
2022-08-16T05:27:31.202Z,39
2022-08-16T05:28:46.384Z,39
2022-08-16T05:30:03.576Z,39
2022-08-16T05:31:18.773Z,39
2022-08-16T05:32:34.957Z,39
2022-08-16T05:33:50.169Z,39
2022-08-16T05:35:07.347Z,39
2022-08-16T05:36:23.552Z,45
2022-08-16T05:37:39.742Z,45
2022-08-16T05:38:54.931Z,45
2022-08-16T05:40:12.109Z,45
2022-08-16T05:41:28.310Z,45
2022-08-16T05:42:44.487Z,45
2022-08-16T05:43:59.685Z,45
2022-08-16T05:45:15.869Z,45
2022-08-16T05:46:32.063Z,45
2022-08-16T05:47:49.240Z,45
2022-08-16T05:49:05.434Z,45
2022-08-16T05:50:20.641Z,45
2022-08-16T05:51:36.102Z,50
2022-08-16T05:52:53.015Z,50
2022-08-16T05:54:08.489Z,50
2022-08-16T05:55:25.391Z,56
2022-08-16T05:56:41.579Z,56
2022-08-16T05:57:57.056Z,50
2022-08-16T05:59:13.239Z,50
2022-08-16T06:00:30.149Z,50
2022-08-16T06:01:45.614Z,50
2022-08-16T06:03:02.538Z,50
2022-08-16T06:04:17.000Z,50
2022-08-16T06:05:34.905Z,50
2022-08-16T06:06:49.377Z,50
2022-08-16T06:08:06.303Z,50
2022-08-16T06:09:22.492Z,50
2022-08-16T06:10:37.948Z,56
2022-08-16T06:11:54.875Z,56
2022-08-16T06:13:11.057Z,56
2022-08-16T06:14:26.519Z,56
2022-08-16T06:15:43.450Z,56
2022-08-16T06:16:58.896Z,56
2022-08-16T06:18:15.073Z,56
2022-08-16T06:19:31.279Z,56
2022-08-16T06:20:47.457Z,56
2022-08-16T06:22:04.391Z,56
2022-08-16T06:23:18.857Z,56
2022-08-16T06:24:35.775Z,56
2022-08-16T06:25:51.245Z,56
2022-08-16T06:27:08.162Z,56
2022-08-16T06:28:24.349Z,56
2022-08-16T06:29:39.803Z,56
2022-08-16T06:30:55.992Z,56
2022-08-16T06:32:12.184Z,56
2022-08-16T06:33:29.103Z,61
2022-08-16T06:34:44.556Z,61
2022-08-16T06:36:01.483Z,61
2022-08-16T06:37:16.928Z,61
2022-08-16T06:38:33.128Z,61
2022-08-16T06:39:48.335Z,61
2022-08-16T06:41:05.258Z,61
2022-08-16T06:42:20.698Z,61
2022-08-16T06:43:37.640Z,61
2022-08-16T06:44:53.086Z,61
2022-08-16T06:46:09.269Z,61
2022-08-16T06:47:25.461Z,61
2022-08-16T06:48:42.401Z,61
2022-08-16T06:49:58.580Z,61
2022-08-16T06:51:14.779Z,61
2022-08-16T06:52:30.219Z,61
2022-08-16T06:53:47.159Z,61
2022-08-16T06:55:02.595Z,61
2022-08-16T06:56:18.545Z,61
2022-08-16T06:57:34.726Z,61
2022-08-16T06:58:50.921Z,61
2022-08-16T07:00:06.379Z,61
2022-08-16T07:01:22.560Z,67
2022-08-16T07:02:39.500Z,67
2022-08-16T07:03:55.677Z,67
2022-08-16T07:05:11.864Z,67
2022-08-16T07:06:28.063Z,67
2022-08-16T07:07:43.507Z,67
2022-08-16T07:08:59.699Z,67
2022-08-16T07:10:15.878Z,67
2022-08-16T07:11:32.815Z,67
2022-08-16T07:12:47.281Z,67
2022-08-16T07:14:03.456Z,67
2022-08-16T07:15:19.655Z,67
2022-08-16T07:16:36.580Z,67
2022-08-16T07:17:52.024Z,67
2022-08-16T07:19:08.961Z,67
2022-08-16T07:20:23.429Z,67
2022-08-16T07:21:40.372Z,67
2022-08-16T07:22:55.811Z,67
2022-08-16T07:24:12.750Z,67
2022-08-16T07:25:28.931Z,67
2022-08-16T07:26:44.384Z,67
2022-08-16T07:28:01.313Z,67
2022-08-16T07:29:17.503Z,67
2022-08-16T07:30:32.948Z,67
2022-08-16T07:31:49.886Z,67
2022-08-16T07:33:05.311Z,67
2022-08-16T07:34:22.258Z,67
2022-08-16T07:35:38.446Z,67
2022-08-16T07:36:53.656Z,67
2022-08-16T07:38:09.094Z,73
2022-08-16T07:39:25.288Z,73
2022-08-16T07:40:42.225Z,73
2022-08-16T07:41:57.656Z,73
2022-08-16T07:43:14.603Z,73
2022-08-16T07:44:30.779Z,73
2022-08-16T07:45:46.213Z,73
2022-08-16T07:47:02.412Z,73
2022-08-16T07:48:18.611Z,73
2022-08-16T07:49:35.543Z,73
2022-08-16T07:50:51.743Z,73
2022-08-16T07:52:07.172Z,73
2022-08-16T07:53:22.368Z,73
2022-08-16T07:54:39.308Z,73
2022-08-16T07:55:54.751Z,73
2022-08-16T07:57:10.940Z,73
2022-08-16T07:58:27.132Z,73
2022-08-16T07:59:44.067Z,73
2022-08-16T08:00:59.507Z,73
2022-08-16T08:02:16.444Z,73
2022-08-16T08:03:31.877Z,78
2022-08-16T08:04:48.070Z,78
2022-08-16T08:06:05.022Z,78
2022-08-16T08:07:21.211Z,78
2022-08-16T08:08:36.644Z,78
2022-08-16T08:09:52.596Z,78
2022-08-16T08:11:08.032Z,78
2022-08-16T08:12:24.973Z,78
2022-08-16T08:13:40.419Z,78
2022-08-16T08:14:57.360Z,78
2022-08-16T08:16:12.801Z,78
2022-08-16T08:17:29.746Z,78
2022-08-16T08:18:45.172Z,78
2022-08-16T08:20:02.115Z,78
2022-08-16T08:21:18.312Z,78
2022-08-16T08:22:34.496Z,78
2022-08-16T08:23:49.935Z,78
2022-08-16T08:25:06.881Z,78
2022-08-16T08:26:22.000Z,78
2022-08-16T08:27:38.264Z,78
2022-08-16T08:28:54.462Z,78
2022-08-16T08:30:09.886Z,84
2022-08-16T08:31:26.080Z,84
2022-08-16T08:32:42.259Z,84
2022-08-16T08:33:58.456Z,84
2022-08-16T08:35:14.643Z,84
2022-08-16T08:36:30.830Z,84
2022-08-16T08:37:47.785Z,84
2022-08-16T08:39:03.221Z,84
2022-08-16T08:40:20.156Z,84
2022-08-16T08:41:35.583Z,84
2022-08-16T08:42:50.794Z,84
2022-08-16T08:44:07.739Z,84
2022-08-16T08:45:23.934Z,90
2022-08-16T08:46:39.350Z,90
2022-08-16T08:47:56.302Z,90
2022-08-16T08:49:11.733Z,90
2022-08-16T08:50:28.683Z,90
2022-08-16T08:51:44.874Z,90
2022-08-16T08:53:01.058Z,90
2022-08-16T08:54:17.234Z,90
2022-08-16T08:55:32.652Z,90
2022-08-16T08:56:48.839Z,90
2022-08-16T08:58:05.033Z,90
2022-08-16T08:59:21.007Z,95
2022-08-16T09:00:37.200Z,90
2022-08-16T09:01:53.389Z,95
2022-08-16T09:03:09.564Z,95
2022-08-16T09:04:24.993Z,95
2022-08-16T09:05:41.166Z,95
2022-08-16T09:06:58.127Z,95
2022-08-16T09:08:13.555Z,95
2022-08-16T09:09:29.747Z,95
2022-08-16T09:10:46.698Z,101
2022-08-16T09:12:02.875Z,101
2022-08-16T09:13:19.069Z,101
2022-08-16T09:14:35.259Z,101
2022-08-16T09:15:50.463Z,101
2022-08-16T09:17:05.883Z,101
2022-08-16T09:18:22.837Z,101
2022-08-16T09:19:38.243Z,101
2022-08-16T09:20:54.432Z,101
2022-08-16T09:22:10.629Z,101
2022-08-16T09:23:27.580Z,106
2022-08-16T09:24:43.776Z,106
2022-08-16T09:25:59.963Z,106
2022-08-16T09:27:15.380Z,106
2022-08-16T09:28:32.333Z,106
2022-08-16T09:29:48.519Z,106
2022-08-16T09:31:04.722Z,106
2022-08-16T09:32:19.136Z,106
2022-08-16T09:33:35.331Z,106
2022-08-16T09:34:52.289Z,101
2022-08-16T09:36:08.478Z,112
2022-08-16T09:37:24.659Z,112
2022-08-16T09:38:40.844Z,112
2022-08-16T09:39:56.265Z,112
2022-08-16T09:41:13.236Z,112
2022-08-16T09:42:29.408Z,112
2022-08-16T09:43:45.603Z,112
2022-08-16T09:45:01.786Z,118
2022-08-16T09:46:17.198Z,118
2022-08-16T09:47:33.380Z,118
2022-08-16T09:48:49.365Z,118
2022-08-16T09:50:04.770Z,118
2022-08-16T09:51:21.754Z,118
2022-08-16T09:52:37.929Z,123
2022-08-16T09:53:54.128Z,123
2022-08-16T09:55:09.533Z,123
2022-08-16T09:56:26.493Z,123
2022-08-16T09:57:41.895Z,123
2022-08-16T09:58:58.094Z,123
2022-08-16T10:00:15.067Z,129
2022-08-16T10:01:31.000Z,129
2022-08-16T10:02:46.648Z,135
2022-08-16T10:04:03.626Z,135
2022-08-16T10:05:18.051Z,140
2022-08-16T10:06:35.021Z,140
2022-08-16T10:07:51.203Z,140
2022-08-16T10:09:06.601Z,146
2022-08-16T10:10:23.583Z,151
2022-08-16T10:11:38.989Z,151
2022-08-16T10:12:55.164Z,151
2022-08-16T10:14:11.353Z,157
2022-08-16T10:15:28.319Z,163
2022-08-16T10:16:44.514Z,168
2022-08-16T10:17:59.923Z,174
2022-08-16T10:19:16.889Z,174
2022-08-16T10:20:32.295Z,168
2022-08-16T10:21:48.278Z,168
2022-08-16T10:23:04.466Z,163
2022-08-16T10:24:19.870Z,163
2022-08-16T10:25:36.000Z,157
2022-08-16T10:26:53.032Z,157
2022-08-16T10:28:08.423Z,157
2022-08-16T10:29:25.413Z,168
2022-08-16T10:30:40.796Z,180
2022-08-16T10:31:57.782Z,185
2022-08-16T10:33:13.177Z,185
2022-08-16T10:34:29.369Z,202
2022-08-16T10:35:45.558Z,208
2022-08-16T10:37:01.745Z,213
2022-08-16T10:38:17.737Z,219
2022-08-16T10:39:33.918Z,236
2022-08-16T10:40:49.329Z,225
2022-08-16T10:42:06.297Z,208
2022-08-16T10:43:21.685Z,213
2022-08-16T10:44:38.676Z,225
2022-08-16T10:45:54.066Z,236
2022-08-16T10:47:11.050Z,241
2022-08-16T10:48:26.438Z,258
2022-08-16T10:49:42.627Z,281
2022-08-16T10:50:58.813Z,298
2022-08-16T10:52:15.806Z,258
2022-08-16T10:53:31.982Z,258
2022-08-16T10:54:47.193Z,264
2022-08-16T10:56:02.579Z,298
2022-08-16T10:57:18.761Z,264
2022-08-16T10:58:34.966Z,253
2022-08-16T10:59:51.146Z,230
2022-08-16T11:01:08.129Z,292
2022-08-16T11:02:23.510Z,292
2022-08-16T11:03:40.495Z,298
2022-08-16T11:04:55.891Z,292
2022-08-16T11:06:12.086Z,258
2022-08-16T11:07:29.057Z,281
2022-08-16T11:08:45.245Z,315
2022-08-16T11:10:01.433Z,326
2022-08-16T11:11:15.843Z,315
2022-08-16T11:12:32.044Z,320
2022-08-16T11:13:48.222Z,343
2022-08-16T11:15:04.410Z,354
2022-08-16T11:16:21.389Z,326
2022-08-16T11:17:37.581Z,331
2022-08-16T11:18:52.978Z,331
2022-08-16T11:20:09.953Z,354
2022-08-16T11:21:26.137Z,365
2022-08-16T11:22:42.332Z,376
2022-08-16T11:23:58.526Z,382
2022-08-16T11:25:13.902Z,410
2022-08-16T11:26:30.099Z,416
2022-08-16T11:27:45.300Z,410
2022-08-16T11:29:02.282Z,433
2022-08-16T11:30:18.465Z,433
2022-08-16T11:31:33.858Z,438
2022-08-16T11:32:50.843Z,433
2022-08-16T11:34:06.234Z,450
2022-08-16T11:35:22.234Z,461
2022-08-16T11:36:38.436Z,365
2022-08-16T11:37:54.619Z,433
2022-08-16T11:39:10.805Z,421
2022-08-16T11:40:26.194Z,438
2022-08-16T11:41:42.390Z,613
2022-08-16T11:42:59.370Z,1653
2022-08-16T11:44:15.562Z,1749
2022-08-16T11:45:31.740Z,1873
2022-08-16T11:46:47.126Z,2182
2022-08-16T11:48:04.119Z,2176
2022-08-16T11:49:19.511Z,2216
2022-08-16T11:50:36.485Z,2075
2022-08-16T11:51:50.900Z,2131
2022-08-16T11:53:07.092Z,2340
2022-08-16T11:54:24.064Z,1541
2022-08-16T11:55:40.268Z,945
2022-08-16T11:56:55.650Z,2075
2022-08-16T11:58:12.643Z,2379
2022-08-16T11:59:28.012Z,2328
2022-08-16T12:00:45.011Z,2340
2022-08-16T12:02:00.386Z,1563
2022-08-16T12:03:17.389Z,1704
2022-08-16T12:04:32.764Z,2278
2022-08-16T12:05:48.948Z,2497
2022-08-16T12:07:05.946Z,2469
2022-08-16T12:08:21.152Z,2323
2022-08-16T12:09:37.334Z,2486
2022-08-16T12:10:53.530Z,2548
2022-08-16T12:12:09.723Z,2604
2022-08-16T12:13:25.909Z,331
2022-08-16T12:14:41.294Z,360
2022-08-16T12:15:58.278Z,2486
2022-08-16T12:17:14.465Z,2649
2022-08-16T12:18:29.857Z,2677
2022-08-16T12:19:46.047Z,2806
2022-08-16T12:21:03.028Z,2531
2022-08-16T12:22:19.214Z,2790
2022-08-16T12:23:35.417Z,2863
2022-08-16T12:24:50.779Z,2604
2022-08-16T12:27:22.184Z,2480
2022-08-16T12:28:38.375Z,2660
2022-08-16T12:29:54.564Z,2660
2022-08-16T12:31:10.745Z,2604
2022-08-16T12:32:26.934Z,2615
2022-08-16T12:33:43.927Z,2553
2022-08-16T12:34:59.310Z,2581
2022-08-16T12:36:16.302Z,2700
2022-08-16T12:37:32.491Z,2700
2022-08-16T12:38:48.676Z,2671
2022-08-16T12:40:04.870Z,2688
2022-08-16T12:41:21.062Z,298
2022-08-16T12:42:35.439Z,410
2022-08-16T12:43:51.634Z,540
2022-08-16T12:45:08.638Z,2486
2022-08-16T12:46:24.818Z,2587
2022-08-16T12:47:41.015Z,2671
2022-08-16T12:48:57.206Z,2716
2022-08-16T12:50:12.566Z,2542
2022-08-16T12:51:28.772Z,2137
2022-08-16T12:52:45.761Z,2480
2022-08-16T12:54:01.964Z,2531
2022-08-16T12:55:18.153Z,2475
2022-08-16T12:56:34.322Z,2188
2022-08-16T12:57:49.695Z,995
2022-08-16T12:59:05.724Z,326
2022-08-16T13:00:21.099Z,213
2022-08-16T13:01:38.092Z,196
2022-08-16T13:02:54.279Z,191
2022-08-16T13:04:09.666Z,168
2022-08-16T13:05:25.834Z,140
2022-08-16T13:06:42.854Z,146
2022-08-16T13:07:58.227Z,163
2022-08-16T13:09:15.216Z,196
2022-08-16T13:10:31.409Z,258
2022-08-16T13:11:47.595Z,753
2022-08-16T13:13:02.972Z,1147
2022-08-16T13:14:19.978Z,326
2022-08-16T13:15:34.352Z,360
2022-08-16T13:16:51.357Z,365
2022-08-16T13:18:07.559Z,523
2022-08-16T13:19:23.733Z,1974
2022-08-16T13:20:39.109Z,596
2022-08-16T13:21:56.118Z,939
2022-08-16T13:23:11.484Z,489
2022-08-16T13:24:28.484Z,405
2022-08-16T13:25:44.676Z,506
2022-08-16T13:27:00.875Z,1063
2022-08-16T13:28:16.232Z,1946
2022-08-16T13:29:33.235Z,2221
2022-08-16T13:30:48.619Z,511
2022-08-16T13:32:03.801Z,365
2022-08-16T13:33:20.819Z,360
2022-08-16T13:34:36.186Z,1440
2022-08-16T13:35:52.382Z,2210
2022-08-16T13:37:09.387Z,2295
2022-08-16T13:38:24.743Z,2306
2022-08-16T13:39:41.770Z,2328
2022-08-16T13:40:57.949Z,2221
2022-08-16T13:42:14.143Z,2131
2022-08-16T13:43:29.501Z,2109
2022-08-16T13:44:46.513Z,2086
2022-08-16T13:46:01.870Z,2126
2022-08-16T13:47:18.056Z,315
2022-08-16T13:48:34.087Z,1546
2022-08-16T13:49:50.284Z,2182
2022-08-16T13:51:05.648Z,2160
2022-08-16T13:52:22.658Z,2255
2022-08-16T13:53:38.838Z,641
2022-08-16T13:54:55.024Z,1901
2022-08-16T13:56:10.389Z,2233
2022-08-16T13:57:27.412Z,2165
2022-08-16T13:58:43.603Z,2143
2022-08-16T13:59:58.962Z,2143
2022-08-16T14:01:15.977Z,2115
2022-08-16T14:02:32.168Z,2148
2022-08-16T14:03:48.356Z,2092
2022-08-16T14:05:02.712Z,303
2022-08-16T14:06:18.899Z,331
2022-08-16T14:07:35.933Z,523
2022-08-16T14:08:52.109Z,506
2022-08-16T14:10:08.304Z,410
2022-08-16T14:11:23.655Z,663
2022-08-16T14:12:40.670Z,450
2022-08-16T14:13:56.875Z,258
2022-08-16T14:15:13.049Z,219
2022-08-16T14:16:29.250Z,208
2022-08-16T14:17:45.434Z,213
2022-08-16T14:19:01.611Z,202
2022-08-16T14:20:17.808Z,191
2022-08-16T14:21:32.184Z,185
2022-08-16T14:22:49.201Z,174
2022-08-16T14:24:05.394Z,163
2022-08-16T14:25:21.571Z,151
2022-08-16T14:26:37.756Z,140
2022-08-16T14:27:53.948Z,135
2022-08-16T14:29:09.309Z,146
2022-08-16T14:30:26.330Z,180
2022-08-16T14:31:41.675Z,196
2022-08-16T14:32:58.699Z,365
2022-08-16T14:34:14.889Z,1687
2022-08-16T14:35:31.078Z,483
2022-08-16T14:36:47.265Z,765
2022-08-16T14:38:01.627Z,1001
2022-08-16T14:39:18.653Z,343
2022-08-16T14:40:34.004Z,1305
2022-08-16T14:41:51.032Z,253
2022-08-16T14:43:07.221Z,241
2022-08-16T14:44:23.405Z,337
2022-08-16T14:45:39.593Z,438
2022-08-16T14:46:55.779Z,253
2022-08-16T14:48:11.966Z,309
2022-08-16T14:49:28.157Z,461
2022-08-16T14:50:43.504Z,466
2022-08-16T14:51:59.677Z,450
2022-08-16T14:53:16.710Z,450
2022-08-16T14:54:31.083Z,382
2022-08-16T14:55:48.098Z,258
2022-08-16T14:57:04.300Z,253
2022-08-16T14:58:19.641Z,213
2022-08-16T14:59:35.819Z,337
2022-08-16T15:00:52.853Z,399
2022-08-16T15:02:09.039Z,393
2022-08-16T15:03:24.388Z,405
2022-08-16T15:04:41.416Z,393
2022-08-16T15:05:57.616Z,348
2022-08-16T15:07:12.959Z,309
2022-08-16T15:08:29.988Z,275
2022-08-16T15:09:46.176Z,247
2022-08-16T15:11:01.379Z,225
2022-08-16T15:12:17.561Z,208
2022-08-16T15:13:33.749Z,196
2022-08-16T15:14:49.085Z,185
2022-08-16T15:16:05.276Z,180
2022-08-16T15:17:22.323Z,174
2022-08-16T15:18:38.509Z,168
2022-08-16T15:19:54.681Z,163
2022-08-16T15:21:10.877Z,163
2022-08-16T15:22:27.074Z,163
2022-08-16T15:23:43.254Z,157
2022-08-16T15:24:59.440Z,146
2022-08-16T15:26:15.633Z,146
2022-08-16T15:27:30.822Z,140
2022-08-16T15:28:46.169Z,140
2022-08-16T15:30:02.364Z,135
2022-08-16T15:31:18.536Z,135
2022-08-16T15:32:34.734Z,135
2022-08-16T15:33:51.767Z,140
2022-08-16T15:35:07.964Z,146
2022-08-16T15:36:24.139Z,140
2022-08-16T15:37:39.490Z,140
2022-08-16T15:38:56.520Z,140
2022-08-16T15:40:11.850Z,135
2022-08-16T15:41:28.036Z,123
2022-08-16T15:42:44.223Z,123
2022-08-16T15:44:00.289Z,118
2022-08-16T15:45:15.633Z,112
2022-08-16T15:46:32.653Z,112
2022-08-16T15:47:48.845Z,118
2022-08-16T15:49:05.027Z,123
2022-08-16T15:50:19.395Z,118
2022-08-16T15:51:36.439Z,118
2022-08-16T15:52:51.763Z,118
2022-08-16T15:54:07.951Z,112
2022-08-16T15:55:24.155Z,112
2022-08-16T15:56:41.183Z,112
2022-08-16T15:57:57.363Z,112
2022-08-16T15:59:13.551Z,106
2022-08-16T16:00:28.902Z,106
2022-08-16T16:01:45.937Z,106
2022-08-16T16:03:01.263Z,106
2022-08-16T16:04:18.312Z,101
2022-08-16T16:05:34.497Z,101
2022-08-16T16:06:49.693Z,101
2022-08-16T16:08:05.034Z,95
2022-08-16T16:09:22.069Z,95
2022-08-16T16:10:37.411Z,95
2022-08-16T16:11:53.591Z,95
2022-08-16T16:13:09.783Z,95
2022-08-16T16:14:26.823Z,90
2022-08-16T16:15:43.021Z,90
2022-08-16T16:16:59.198Z,90
2022-08-16T16:18:15.389Z,84
2022-08-16T16:19:31.570Z,84
2022-08-16T16:20:47.764Z,84
2022-08-16T16:22:03.943Z,84
2022-08-16T16:23:18.304Z,78
2022-08-16T16:24:35.339Z,78
2022-08-16T16:25:50.672Z,78
2022-08-16T16:27:07.723Z,78
2022-08-16T16:28:23.895Z,78
2022-08-16T16:29:40.100Z,73
2022-08-16T16:30:55.411Z,73
2022-08-16T16:32:12.472Z,73
2022-08-16T16:33:28.647Z,73
2022-08-16T16:34:44.837Z,73
2022-08-16T16:36:01.025Z,73
2022-08-16T16:37:17.213Z,73
2022-08-16T16:38:32.544Z,73
2022-08-16T16:39:48.599Z,73
2022-08-16T16:41:03.936Z,67
2022-08-16T16:42:20.977Z,67
2022-08-16T16:43:37.167Z,73
2022-08-16T16:44:52.505Z,73
2022-08-16T16:46:08.694Z,67
2022-08-16T16:47:24.866Z,67
2022-08-16T16:48:41.918Z,67
2022-08-16T16:49:58.117Z,61
2022-08-16T16:51:14.289Z,61
2022-08-16T16:52:30.479Z,61
2022-08-16T16:53:46.668Z,61
2022-08-16T16:55:02.856Z,61
2022-08-16T16:56:18.056Z,61
2022-08-16T16:57:33.396Z,61
2022-08-16T16:58:50.449Z,61
2022-08-16T17:00:06.635Z,61
2022-08-16T17:01:21.955Z,56
2022-08-16T17:02:39.001Z,56
2022-08-16T17:03:54.329Z,56
2022-08-16T17:05:11.379Z,50
2022-08-16T17:06:26.702Z,50
2022-08-16T17:07:43.746Z,50
2022-08-16T17:08:59.080Z,45
2022-08-16T17:10:16.120Z,45
2022-08-16T17:11:31.439Z,45
2022-08-16T17:12:47.526Z,45
2022-08-16T17:14:02.836Z,45
2022-08-16T17:15:19.894Z,39
2022-08-16T17:16:35.218Z,39
2022-08-16T17:17:51.404Z,39
2022-08-16T17:19:08.464Z,39
2022-08-16T17:20:24.654Z,39
2022-08-16T17:21:40.825Z,39
2022-08-16T17:22:57.018Z,33
2022-08-16T17:24:12.339Z,33
2022-08-16T17:25:29.397Z,33
2022-08-16T17:26:45.587Z,33
2022-08-16T17:28:01.763Z,33
2022-08-16T17:29:16.983Z,33
2022-08-16T17:30:33.170Z,33
2022-08-16T17:31:48.476Z,28
2022-08-16T17:33:05.535Z,28
2022-08-16T17:34:21.724Z,28
2022-08-16T17:35:37.037Z,28
2022-08-16T17:36:53.222Z,28
2022-08-16T17:38:10.278Z,28
2022-08-16T17:39:25.612Z,28
2022-08-16T17:40:42.658Z,22
2022-08-16T17:41:57.987Z,22
2022-08-16T17:43:14.165Z,22
2022-08-16T17:44:31.219Z,22
2022-08-16T17:45:46.428Z,22
2022-08-16T17:47:01.738Z,22
2022-08-16T17:48:17.931Z,22
2022-08-16T17:49:34.984Z,16
2022-08-16T17:50:50.297Z,16
2022-08-16T17:52:07.368Z,16
2022-08-16T17:53:23.563Z,16
2022-08-16T17:54:38.877Z,16
2022-08-16T17:55:55.937Z,16
2022-08-16T17:57:12.111Z,16